Terminal Aerodrome Forecast
Issued by NWS Paducah, KY

Home | Current Version | Previous Version | Text Only | Print | Product List | Glossary On
Versions: 1 2 3 4 5 6 7 8 9 10 11 12 13 14 15 16 17 18 19 20
716
FTUS43 KPAH 241137
TAFPAH
TAF
KPAH 241137Z 2412/2512 18012G22KT P6SM SCT025 BKN250
      TEMPO 2415/2419 BKN025
     FM241900 19016G27KT P6SM BKN035
     FM250000 16012G20KT P6SM BKN070
     FM250600 16014G24KT 6SM SHRA OVC035=

USA.gov is the U.S. government's official web portal to all federal, state and local government web resources and services.